Time;durP1;ratioP1;P1;durP2;ratioP2;P2;SDS_P1;SDS_P2;PMS_P1;PMS_P2;Temp;Humidity;BMP_temperature;BMP_pressure;BME280_temperature;BME280_humidity;BME280_pressure;Samples;Min_cycle;Max_cycle;Signal;HPM_P1;HPM_P2
2022/01/22 00:00:12;;;;;;;14.10;1.42;;;;;;;4.65;60.99;102820.00;5010884;28;20574;-72
2022/01/22 00:02:38;;;;;;;17.80;1.45;;;;;;;4.60;61.16;102819.06;5006658;28;20034;-71
2022/01/22 00:05:06;;;;;;;12.15;1.15;;;;;;;4.81;60.48;102818.53;5011161;28;20064;-71
2022/01/22 00:07:31;;;;;;;14.55;1.75;;;;;;;4.55;61.56;102815.56;5009679;28;20552;-71
2022/01/22 00:10:03;;;;;;;13.00;1.55;;;;;;;4.87;60.46;102822.94;5016650;28;20033;-72
2022/01/22 00:12:45;;;;;;;12.43;1.00;;;;;;;4.95;59.81;102817.06;5011723;28;20145;-72
2022/01/22 00:15:13;;;;;;;17.20;0.75;;;;;;;4.78;60.30;102828.84;5008666;28;20076;-72
2022/01/22 00:17:38;;;;;;;13.38;1.15;;;;;;;5.19;59.32;102820.84;5010490;28;20034;-72
2022/01/22 00:20:05;;;;;;;11.40;0.60;;;;;;;5.08;59.75;102825.91;5010633;28;20470;-72
2022/01/22 00:22:33;;;;;;;13.75;1.45;;;;;;;4.70;60.87;102823.56;5010081;28;20044;-71
2022/01/22 00:25:00;;;;;;;16.17;2.50;;;;;;;4.67;60.73;102831.28;5024233;28;21406;-71
2022/01/22 00:27:27;;;;;;;14.77;1.00;;;;;;;4.92;59.82;102827.41;5008533;28;20046;-71
2022/01/22 00:29:53;;;;;;;7.63;0.90;;;;;;;4.95;60.00;102823.97;5008777;28;20033;-73
2022/01/22 00:32:18;;;;;;;7.80;1.35;;;;;;;5.07;59.27;102836.22;5011222;28;20042;-73
2022/01/22 00:34:44;;;;;;;7.35;0.52;;;;;;;4.90;59.76;102828.19;5009790;28;20028;-71
2022/01/22 00:37:11;;;;;;;15.13;2.75;;;;;;;5.04;59.57;102821.50;5009539;28;20046;-72
2022/01/22 00:39:37;;;;;;;11.65;1.50;;;;;;;4.48;61.21;102824.06;5025757;28;20040;-72
2022/01/22 00:42:08;;;;;;;9.15;0.50;;;;;;;4.85;60.05;102817.72;5008282;28;22316;-73
2022/01/22 00:44:34;;;;;;;5.43;0.40;;;;;;;5.07;59.09;102826.72;5010584;28;20069;-73
2022/01/22 00:47:02;;;;;;;11.38;1.10;;;;;;;4.38;60.68;102817.84;5016328;28;20195;-72
2022/01/22 00:49:28;;;;;;;23.10;0.98;;;;;;;4.78;60.26;102823.69;5025645;28;20536;-72
2022/01/22 00:51:54;;;;;;;14.65;2.05;;;;;;;4.81;60.05;102822.03;5023358;28;20033;-71
2022/01/22 00:54:19;;;;;;;17.80;0.75;;;;;;;5.11;59.16;102825.94;5009206;28;20086;-71
2022/01/22 00:56:44;;;;;;;15.88;0.77;;;;;;;4.98;59.57;102824.88;5021464;28;20285;-71
2022/01/22 00:59:10;;;;;;;23.83;1.08;;;;;;;5.30;58.63;102821.00;5026595;28;20030;-71
2022/01/22 01:01:35;;;;;;;17.00;1.63;;;;;;;4.90;59.69;102833.38;5006877;28;20033;-71
2022/01/22 01:04:02;;;;;;;10.50;1.45;;;;;;;4.82;59.87;102830.66;5012874;28;20221;-72
2022/01/22 01:06:29;;;;;;;23.55;2.08;;;;;;;4.89;59.66;102826.47;5017274;28;20052;-71
2022/01/22 01:08:54;;;;;;;13.65;0.98;;;;;;;4.91;59.50;102823.03;5007150;28;20041;-71
2022/01/22 01:11:25;;;;;;;12.63;1.17;;;;;;;4.55;60.77;102828.50;5010752;28;20064;-71
2022/01/22 01:13:56;;;;;;;11.65;0.85;;;;;;;4.55;60.99;102828.50;5007949;28;20070;-72
2022/01/22 01:16:44;;;;;;;26.13;1.95;;;;;;;4.96;59.39;102831.75;4991429;28;20312;-71
2022/01/22 01:33:06;;;;;;;13.02;0.55;;;;;;;4.74;59.63;102833.09;5004825;28;20129;-72
2022/01/22 01:35:35;;;;;;;10.10;0.57;;;;;;;4.71;59.41;102846.03;4989728;28;20057;-71
2022/01/22 01:38:02;;;;;;;19.80;1.67;;;;;;;4.71;59.48;102853.78;5005439;28;20073;-71
2022/01/22 01:40:29;;;;;;;12.35;1.17;;;;;;;5.04;58.70;102850.88;4981367;28;20037;-72
2022/01/22 01:43:07;;;;;;;21.05;1.15;;;;;;;4.84;59.19;102849.69;5005631;28;20041;-72
2022/01/22 01:45:33;;;;;;;29.50;2.88;;;;;;;4.75;59.49;102853.00;5002615;28;20125;-72
2022/01/22 01:48:06;;;;;;;15.57;1.65;;;;;;;4.82;58.92;102852.25;4997590;28;20048;-71
2022/01/22 01:50:36;;;;;;;7.25;0.50;;;;;;;4.87;58.42;102860.09;5005534;28;20418;-74
2022/01/22 01:56:05;;;;;;;13.18;0.75;;;;;;;4.87;58.71;102867.00;4989529;28;20487;-70
2022/01/22 01:58:34;;;;;;;8.05;0.70;;;;;;;5.03;58.05;102876.78;4982336;28;20498;-70
2022/01/22 02:01:00;;;;;;;3.67;0.73;;;;;;;4.86;58.45;102878.22;5004922;28;20038;-70
2022/01/22 02:03:26;;;;;;;7.25;0.28;;;;;;;5.03;57.54;102874.19;4989398;28;20078;-70
2022/01/22 02:06:02;;;;;;;14.80;0.55;;;;;;;4.76;58.40;102880.63;5005899;28;20217;-70
2022/01/22 02:08:31;;;;;;;7.05;0.50;;;;;;;5.12;57.08;102876.03;4988031;28;20042;-69
2022/01/22 02:11:02;;;;;;;12.63;1.60;;;;;;;5.11;57.43;102880.38;5004117;28;20033;-70
2022/01/22 02:14:09;;;;;;;9.00;0.82;;;;;;;4.83;58.20;102890.28;5005281;28;20026;-70
2022/01/22 02:25:16;;;;;;;14.95;1.23;;;;;;;4.98;57.99;102897.44;5004323;28;20095;-71
2022/01/22 02:27:43;;;;;;;10.73;1.08;;;;;;;4.92;57.97;102904.25;4976442;28;20320;-71
2022/01/22 02:30:18;;;;;;;6.80;1.15;;;;;;;4.52;59.54;102908.72;4987346;28;20418;-72
2022/01/22 02:35:47;;;;;;;10.23;0.38;;;;;;;4.80;58.52;102907.47;5005991;28;20037;-72
2022/01/22 02:38:19;;;;;;;1.05;0.30;;;;;;;4.81;58.87;102907.53;4992975;28;20029;-72
2022/01/22 02:40:47;;;;;;;7.40;0.32;;;;;;;5.12;57.55;102908.00;5023053;28;20064;-73
2022/01/22 02:43:14;;;;;;;11.80;0.70;;;;;;;4.88;58.52;102902.44;5022259;28;20029;-73
2022/01/22 02:45:42;;;;;;;7.28;0.30;;;;;;;4.76;58.75;102903.94;5008045;28;20121;-73
2022/01/22 02:48:08;;;;;;;11.63;1.20;;;;;;;4.77;58.53;102902.25;5008766;28;20617;-73
2022/01/22 02:50:34;;;;;;;7.38;0.50;;;;;;;4.70;58.86;102898.69;5011542;28;20099;-73
2022/01/22 02:53:06;;;;;;;16.85;2.00;;;;;;;4.57;59.54;102905.38;5012708;28;20045;-72
2022/01/22 02:55:32;;;;;;;;;;;;;;;4.72;58.91;102909.97;5006382;28;20044;-73
2022/01/22 02:57:59;;;;;;;7.35;0.45;;;;;;;4.40;59.96;102919.72;5007713;28;19971;-72
2022/01/22 03:00:26;;;;;;;9.00;0.38;;;;;;;4.60;59.21;102913.19;5018468;28;20076;-72
2022/01/22 03:02:51;;;;;;;7.45;0.50;;;;;;;4.58;59.19;102924.38;5005957;28;20503;-72
2022/01/22 03:05:20;;;;;;;13.30;0.40;;;;;;;4.69;58.72;102920.25;5005690;28;20029;-73
2022/01/22 03:07:52;;;;;;;10.63;1.17;;;;;;;4.69;58.69;102917.66;5013498;28;20402;-73
2022/01/22 03:10:23;;;;;;;7.18;0.40;;;;;;;4.79;58.59;102929.06;4988857;28;20061;-74
2022/01/22 03:13:10;;;;;;;8.25;0.65;;;;;;;4.43;59.30;102923.25;5007017;28;20406;-73
2022/01/22 03:18:21;;;;;;;9.70;1.20;;;;;;;4.90;58.12;102921.47;5021274;28;20550;-72
2022/01/22 03:21:06;;;;;;;8.80;1.17;;;;;;;4.76;58.21;102919.50;5021040;28;20156;-72
2022/01/22 03:31:31;;;;;;;2.63;0.45;;;;;;;4.82;58.13;102919.59;5006498;28;20143;-73
2022/01/22 03:33:56;;;;;;;14.93;1.10;;;;;;;4.73;58.74;102924.63;5007035;28;20062;-74
2022/01/22 03:36:23;;;;;;;6.25;0.88;;;;;;;4.34;59.40;102930.84;5005821;28;20067;-74
2022/01/22 03:38:49;;;;;;;8.90;0.95;;;;;;;4.91;57.96;102929.28;5022781;28;20034;-73
2022/01/22 03:41:15;;;;;;;17.55;0.65;;;;;;;5.07;57.17;102933.00;5006000;28;20033;-73
2022/01/22 03:43:43;;;;;;;13.60;0.77;;;;;;;4.77;58.18;102938.53;5004684;28;20030;-72
2022/01/22 03:46:09;;;;;;;7.18;0.47;;;;;;;4.97;57.75;102933.72;5004631;28;20501;-71
2022/01/22 03:48:35;;;;;;;6.57;0.28;;;;;;;5.00;57.81;102936.34;4993792;28;20494;-73
2022/01/22 03:51:02;;;;;;;4.07;0.30;;;;;;;5.04;57.25;102938.16;5025079;28;20033;-72
2022/01/22 03:53:27;;;;;;;8.20;0.32;;;;;;;5.02;57.35;102932.06;5019079;28;20052;-72
2022/01/22 03:58:31;;;;;;;8.30;0.45;;;;;;;4.69;58.35;102935.78;5006279;28;20068;-74
2022/01/22 04:04:08;;;;;;;5.90;0.60;;;;;;;4.56;58.78;102926.06;5005093;28;20041;-71
2022/01/22 04:09:12;;;;;;;6.05;0.50;;;;;;;4.82;58.26;102929.09;5021935;28;20493;-71
2022/01/22 04:11:41;;;;;;;10.23;0.60;;;;;;;4.81;58.14;102936.00;5004986;28;20393;-71
2022/01/22 04:14:15;;;;;;;11.30;0.45;;;;;;;4.99;57.54;102938.06;5006233;28;20041;-71
2022/01/22 04:16:53;;;;;;;10.30;0.63;;;;;;;4.97;57.54;102938.91;5004138;28;20050;-72
2022/01/22 04:25:02;;;;;;;16.15;1.08;;;;;;;4.95;57.56;102941.47;5009204;28;20132;-72
2022/01/22 04:27:28;;;;;;;17.63;0.50;;;;;;;4.86;57.55;102938.69;5004124;28;20037;-73
2022/01/22 04:29:57;;;;;;;11.43;0.40;;;;;;;4.98;57.63;102941.50;5005963;28;20104;-73
2022/01/22 04:32:25;;;;;;;7.88;0.70;;;;;;;4.77;58.10;102939.41;5020570;28;20042;-72
2022/01/22 04:34:50;;;;;;;14.57;1.65;;;;;;;4.79;58.00;102939.44;5009343;28;20030;-72
2022/01/22 04:37:20;;;;;;;13.85;0.45;;;;;;;5.13;56.80;102940.88;5025175;28;20411;-72
2022/01/22 04:39:47;;;;;;;5.63;1.15;;;;;;;4.95;57.60;102935.41;5009957;28;20502;-74
2022/01/22 04:42:14;;;;;;;4.55;0.30;;;;;;;4.77;58.23;102936.81;4996498;28;20048;-72
2022/01/22 04:44:51;;;;;;;4.47;0.52;;;;;;;5.16;56.98;102933.13;5007601;28;20069;-72
2022/01/22 04:47:29;;;;;;;4.43;0.43;;;;;;;5.02;57.41;102930.34;4999422;28;20048;-72
2022/01/22 04:54:57;;;;;;;8.25;0.55;;;;;;;5.11;57.19;102932.22;5010950;28;20485;-73
2022/01/22 04:55:30;;;;;;;9.23;1.02;;;;;;;5.02;57.71;102929.47;5026769;28;20030;-74
2022/01/22 04:57:56;;;;;;;4.20;0.40;;;;;;;5.00;57.84;102934.63;5022719;28;20076;-73
2022/01/22 05:00:23;;;;;;;5.60;0.20;;;;;;;4.69;58.23;102937.50;5012309;28;20132;-72
2022/01/22 05:03:07;;;;;;;5.28;0.30;;;;;;;5.04;57.75;102938.16;5007865;28;20041;-73
2022/01/22 05:05:56;;;;;;;4.88;0.47;;;;;;;4.72;58.42;102943.63;5003228;28;20486;-72
2022/01/22 05:08:35;;;;;;;1.92;0.70;;;;;;;4.94;57.96;102936.25;5006743;28;20173;-71
2022/01/22 05:11:10;;;;;;;6.65;0.20;;;;;;;4.74;58.63;102944.50;5023770;28;20040;-73
2022/01/22 05:13:38;;;;;;;7.10;0.32;;;;;;;4.99;57.71;102932.88;4990814;28;20045;-72
2022/01/22 05:16:07;;;;;;;4.53;0.30;;;;;;;4.84;58.08;102928.28;5026934;28;20026;-73
2022/01/22 05:18:38;;;;;;;12.90;1.10;;;;;;;4.82;58.50;102929.97;5021052;28;20033;-70
2022/01/22 05:21:09;;;;;;;7.97;0.30;;;;;;;4.70;59.19;102932.38;5024387;28;20452;-71
2022/01/22 05:23:37;;;;;;;4.63;0.57;;;;;;;4.70;58.63;102934.06;5006695;28;20522;-71
2022/01/22 05:26:10;;;;;;;2.38;0.63;;;;;;;4.70;58.87;102940.13;5023479;28;20107;-71
2022/01/22 05:37:09;;;;;;;6.70;0.43;;;;;;;4.56;59.01;102951.94;5023728;28;20116;-71
2022/01/22 05:39:36;;;;;;;9.82;0.50;;;;;;;4.85;58.03;102952.47;5025216;28;20091;-71
2022/01/22 05:42:04;;;;;;;11.88;0.40;;;;;;;4.69;58.74;102956.50;5007203;28;20091;-71
2022/01/22 05:44:33;;;;;;;9.57;1.00;;;;;;;4.74;58.40;102962.63;5006175;28;20044;-72
2022/01/22 05:47:04;;;;;;;3.67;0.47;;;;;;;4.72;58.62;102953.09;5007549;28;22173;-71
2022/01/22 05:49:32;;;;;;;8.77;0.20;;;;;;;4.72;58.14;102954.00;5009016;28;20041;-71
2022/01/22 05:51:59;;;;;;;2.97;0.20;;;;;;;4.87;57.58;102957.69;5023081;28;20096;-71
2022/01/22 05:59:47;;;;;;;2.05;0.40;;;;;;;4.76;58.04;102962.69;5008257;28;20044;-71
2022/01/22 06:02:16;;;;;;;3.30;0.10;;;;;;;4.84;57.62;102964.56;5007081;28;20402;-72
2022/01/22 06:04:46;;;;;;;3.22;0.10;;;;;;;4.69;58.11;102964.28;4999038;28;20030;-72
2022/01/22 06:07:14;;;;;;;5.15;0.20;;;;;;;4.77;57.98;102975.66;4990870;28;20121;-72
2022/01/22 06:09:54;;;;;;;1.30;0.10;;;;;;;4.71;58.53;102974.69;5007157;28;20041;-71
2022/01/22 06:12:37;;;;;;;5.05;0.55;;;;;;;4.87;57.88;102979.28;5006938;28;20096;-72
2022/01/22 06:15:03;;;;;;;3.65;0.50;;;;;;;5.03;57.53;102986.53;5007279;28;20537;-72
2022/01/22 06:17:32;;;;;;;7.63;0.43;;;;;;;4.72;58.15;102973.81;4995489;28;20111;-71
2022/01/22 06:20:05;;;;;;;0.93;0.20;;;;;;;4.97;57.53;102976.06;5024237;28;20088;-72
2022/01/22 06:22:33;;;;;;;2.13;0.20;;;;;;;4.81;58.34;102974.88;5023754;28;20113;-71
2022/01/22 06:24:58;;;;;;;1.63;0.30;;;;;;;5.00;57.80;102976.09;5015895;28;22793;-73
2022/01/22 06:27:24;;;;;;;2.15;0.38;;;;;;;5.12;57.32;102980.59;5013745;28;20045;-73
2022/01/22 06:29:50;;;;;;;1.33;0.20;;;;;;;4.94;57.73;102988.06;4990793;28;20612;-73
2022/01/22 06:32:16;;;;;;;3.17;0.30;;;;;;;5.03;57.61;102988.22;5007003;28;20048;-73
2022/01/22 06:34:43;;;;;;;2.88;0.30;;;;;;;5.02;57.96;102989.09;5010080;28;20032;-72
2022/01/22 06:37:09;;;;;;;4.88;0.30;;;;;;;4.84;58.43;102994.78;4990782;28;20087;-71
2022/01/22 06:42:44;;;;;;;3.72;0.73;;;;;;;4.76;59.09;102992.03;5007071;28;20446;-72
2022/01/22 06:45:14;;;;;;;9.07;0.57;;;;;;;4.80;58.56;102991.25;5024482;28;20033;-72
2022/01/22 06:47:43;;;;;;;3.83;0.47;;;;;;;4.93;58.18;102999.28;5005471;28;20050;-72
2022/01/22 06:50:11;;;;;;;7.93;0.57;;;;;;;4.65;59.36;103001.34;5009361;28;20038;-71
2022/01/22 06:52:59;;;;;;;3.78;0.40;;;;;;;4.90;58.53;103002.72;5006410;28;20041;-72
2022/01/22 06:55:42;;;;;;;0.70;0.20;;;;;;;4.87;58.48;103004.31;5012769;28;20036;-72
2022/01/22 06:58:10;;;;;;;3.95;0.28;;;;;;;4.91;58.68;103008.75;5014840;28;20049;-71
2022/01/22 07:00:39;;;;;;;2.97;0.52;;;;;;;4.71;59.13;103005.78;5004382;28;20030;-69
2022/01/22 07:03:20;;;;;;;1.08;0.10;;;;;;;4.64;59.31;103012.56;5022753;28;20037;-70
2022/01/22 07:05:53;;;;;;;4.15;0.65;;;;;;;4.97;58.36;103012.34;4995741;28;20103;-70
2022/01/22 07:08:21;;;;;;;5.43;0.10;;;;;;;4.67;59.26;103010.00;4989809;28;20049;-71
2022/01/22 07:10:52;;;;;;;5.47;0.10;;;;;;;4.56;59.60;103014.09;5005774;28;20059;-72
2022/01/22 07:13:18;;;;;;;0.85;0.10;;;;;;;4.79;58.80;103007.66;5004164;28;20038;-73
2022/01/22 07:15:45;;;;;;;1.33;0.40;;;;;;;5.02;57.86;103009.81;4995405;28;20392;-72
2022/01/22 07:18:17;;;;;;;9.60;0.50;;;;;;;4.53;59.19;103014.94;5007862;28;20100;-73
2022/01/22 07:20:44;;;;;;;6.57;0.30;;;;;;;4.98;58.53;103013.19;4989819;28;20529;-73
2022/01/22 07:25:43;;;;;;;2.40;0.10;;;;;;;4.76;58.74;103012.75;5008239;28;20443;-71
2022/01/22 07:28:30;;;;;;;3.83;0.20;;;;;;;4.80;58.83;103022.34;5022173;28;20073;-71
2022/01/22 07:30:59;;;;;;;8.80;0.20;;;;;;;4.89;58.09;103023.41;5010200;28;20053;-71
2022/01/22 07:33:28;;;;;;;5.35;0.22;;;;;;;5.00;58.13;103025.34;5004928;28;20151;-72
2022/01/22 07:35:54;;;;;;;7.95;0.30;;;;;;;4.72;59.21;103025.63;4990370;28;20091;-72
2022/01/22 07:38:21;;;;;;;6.82;0.55;;;;;;;4.42;59.74;103022.47;5005958;28;20450;-70
2022/01/22 07:40:48;;;;;;;5.93;1.75;;;;;;;4.57;59.42;103026.22;5004336;28;20061;-70
2022/01/22 07:43:19;;;;;;;2.10;0.43;;;;;;;4.77;58.78;103040.44;5006645;28;20052;-70
2022/01/22 07:46:14;;;;;;;2.25;0.30;;;;;;;4.76;59.10;103036.09;5000098;28;20353;-71
2022/01/22 07:48:49;;;;;;;5.82;0.70;;;;;;;4.63;59.22;103039.28;5020563;28;20037;-71
2022/01/22 07:51:29;;;;;;;2.95;0.20;;;;;;;4.92;58.42;103042.50;4997862;28;20033;-72
2022/01/22 07:53:55;;;;;;;5.95;0.30;;;;;;;4.79;58.83;103043.94;5005583;28;20045;-72
2022/01/22 07:56:22;;;;;;;4.60;0.30;;;;;;;4.30;60.46;103049.84;5007127;28;20528;-73
2022/01/22 07:58:48;;;;;;;4.65;0.25;;;;;;;4.21;60.75;103051.41;5013418;28;20049;-73
2022/01/22 08:01:16;;;;;;;1.73;0.32;;;;;;;4.62;59.18;103045.31;5023784;28;20029;-72
2022/01/22 08:04:05;;;;;;;13.73;0.60;;;;;;;4.47;59.92;103039.84;4990635;28;20125;-72
2022/01/22 08:06:58;;;;;;;0.90;0.50;;;;;;;4.59;59.44;103042.69;5008214;28;20064;-72
2022/01/22 08:09:50;;;;;;;9.43;0.82;;;;;;;4.79;59.10;103046.53;5010467;28;20049;-72
2022/01/22 08:12:26;;;;;;;3.45;0.43;;;;;;;5.06;58.08;103045.31;5007353;28;20506;-73
2022/01/22 08:14:57;;;;;;;2.63;0.45;;;;;;;4.92;58.44;103050.25;5011780;28;20037;-72
2022/01/22 08:17:22;;;;;;;5.03;0.38;;;;;;;4.28;60.58;103060.16;5016200;28;20042;-72
2022/01/22 08:19:49;;;;;;;8.27;0.95;;;;;;;4.33;60.20;103052.50;5010315;28;20045;-71
2022/01/22 08:22:44;;;;;;;4.38;0.20;;;;;;;4.58;59.05;103059.03;5006838;28;20045;-72
2022/01/22 08:25:22;;;;;;;9.20;0.55;;;;;;;5.01;58.35;103067.66;5010622;28;20045;-70
2022/01/22 08:30:36;;;;;;;1.13;0.30;;;;;;;4.79;58.36;103053.44;5025175;28;20086;-71
2022/01/22 08:35:53;;;;;;;1.75;0.20;;;;;;;4.75;58.29;103072.34;5027160;28;20034;-73
2022/01/22 08:38:22;;;;;;;0.82;0.10;;;;;;;4.72;58.68;103067.97;5009845;28;20513;-72
2022/01/22 08:40:48;;;;;;;1.95;0.20;;;;;;;4.72;58.38;103073.16;5028152;28;20026;-74
2022/01/22 08:43:14;;;;;;;0.45;0.10;;;;;;;4.37;59.71;103075.91;5026248;28;20046;-72
2022/01/22 08:45:41;;;;;;;1.13;0.00;;;;;;;4.76;58.35;103076.66;5027210;28;20033;-72
2022/01/22 08:48:07;;;;;;;2.00;0.00;;;;;;;4.99;57.75;103077.16;5015742;28;20494;-72
2022/01/22 08:50:34;;;;;;;3.10;0.30;;;;;;;4.98;57.63;103081.44;4993750;28;20042;-73
2022/01/22 08:53:00;;;;;;;0.60;0.00;;;;;;;4.98;57.61;103075.41;4994863;28;20045;-72
2022/01/22 08:55:26;;;;;;;0.52;0.03;;;;;;;4.59;58.70;103077.22;5010071;28;20021;-73
2022/01/22 08:57:52;;;;;;;0.55;0.10;;;;;;;4.42;58.95;103082.03;5025494;28;20038;-72
2022/01/22 09:00:46;;;;;;;2.03;0.57;;;;;;;5.10;57.37;103075.63;5010271;28;20034;-72
2022/01/22 09:03:19;;;;;;;5.18;0.65;;;;;;;5.03;57.34;103078.94;4995470;28;20104;-72
2022/01/22 09:06:12;;;;;;;4.47;0.20;;;;;;;5.26;56.60;103076.78;5005988;28;20498;-72
2022/01/22 09:09:07;;;;;;;1.73;0.10;;;;;;;5.07;56.91;103088.53;5011623;28;20052;-73
2022/01/22 09:11:52;;;;;;;0.82;0.03;;;;;;;4.97;57.45;103089.22;5007490;28;20051;-73
2022/01/22 09:14:35;;;;;;;1.52;0.10;;;;;;;4.98;57.39;103075.41;5003083;28;20431;-72
2022/01/22 09:17:02;;;;;;;2.40;0.10;;;;;;;5.04;57.24;103072.94;5015220;28;20265;-72
2022/01/22 09:19:34;;;;;;;2.97;0.10;;;;;;;4.73;57.88;103068.84;5015845;28;20179;-73
2022/01/22 09:22:04;;;;;;;1.20;0.10;;;;;;;5.10;56.59;103072.16;5003464;28;20128;-73
2022/01/22 09:24:29;;;;;;;3.88;0.13;;;;;;;5.03;56.81;103068.56;5009978;28;20112;-72
2022/01/22 09:27:00;;;;;;;4.10;0.35;;;;;;;5.31;57.58;103071.69;5005183;28;20026;-72
2022/01/22 09:29:27;;;;;;;2.50;0.00;;;;;;;5.88;55.10;103073.44;4994348;28;20053;-72
2022/01/22 09:31:54;;;;;;;0.43;0.25;;;;;;;5.85;54.77;103073.41;5007989;28;20029;-72
2022/01/22 09:34:38;;;;;;;4.43;0.13;;;;;;;5.96;54.53;103087.41;5008968;28;20041;-74
2022/01/22 09:37:14;;;;;;;1.98;0.30;;;;;;;6.37;53.34;103083.66;4999149;28;20041;-73
2022/01/22 09:39:50;;;;;;;2.08;0.13;;;;;;;6.57;53.08;103097.78;4992391;28;21497;-73
2022/01/22 09:42:42;;;;;;;8.97;0.40;;;;;;;6.25;53.09;103100.81;5005831;28;20038;-72
2022/01/22 09:45:19;;;;;;;2.33;0.30;;;;;;;6.26;53.73;103106.88;5009448;28;20304;-73
2022/01/22 09:48:04;;;;;;;3.35;0.10;;;;;;;5.62;54.36;103101.59;5005235;28;20053;-74
2022/01/22 09:50:58;;;;;;;3.10;0.13;;;;;;;5.87;54.11;103102.84;4993980;28;20777;-73
2022/01/22 09:53:59;;;;;;;0.55;0.03;;;;;;;5.85;53.84;103104.53;4972013;28;20154;-73
2022/01/22 09:56:45;;;;;;;2.05;0.03;;;;;;;6.33;52.93;103108.75;5000144;28;20071;-72
2022/01/22 09:59:26;;;;;;;0.30;0.00;;;;;;;6.91;52.26;103109.47;5006009;28;20104;-72
2022/01/22 10:02:20;;;;;;;0.85;0.40;;;;;;;7.81;50.37;103105.13;4992327;28;20052;-73
2022/01/22 10:04:52;;;;;;;1.60;0.10;;;;;;;8.11;48.49;103110.53;5001604;28;20038;-73
2022/01/22 10:07:51;;;;;;;1.85;0.10;;;;;;;6.90;50.51;103117.22;4991677;28;20453;-73
2022/01/22 10:10:39;;;;;;;3.38;0.22;;;;;;;6.79;51.54;103108.44;5004834;28;20029;-74
2022/01/22 10:13:50;;;;;;;3.97;0.22;;;;;;;6.29;52.85;103114.75;5006399;28;20418;-75
2022/01/22 10:16:25;;;;;;;1.38;0.10;;;;;;;6.65;52.72;103121.28;5003160;28;20045;-73
2022/01/22 10:19:11;;;;;;;5.75;0.10;;;;;;;6.26;52.89;103112.06;5003556;28;20042;-73
2022/01/22 10:21:38;;;;;;;1.08;0.00;;;;;;;6.49;51.85;103108.09;5005078;28;20025;-73
2022/01/22 10:24:26;;;;;;;2.38;0.20;;;;;;;6.72;51.37;103110.09;5002433;28;20144;-74
2022/01/22 10:27:11;;;;;;;2.67;0.10;;;;;;;5.84;53.99;103114.06;5004138;28;20077;-73
2022/01/22 10:29:47;;;;;;;1.30;0.10;;;;;;;5.41;54.71;103112.47;5004385;28;20033;-73
2022/01/22 10:32:26;;;;;;;5.65;0.75;;;;;;;5.73;54.75;103113.03;5005117;28;20041;-73
2022/01/22 10:35:23;;;;;;;4.82;0.52;;;;;;;5.41;55.25;103120.25;5011109;28;20049;-73
2022/01/22 10:38:07;;;;;;;2.45;0.20;;;;;;;5.46;55.38;103116.91;5005100;28;20096;-73
2022/01/22 10:40:38;;;;;;;2.88;0.03;;;;;;;5.45;55.06;103106.50;5012063;28;20042;-73
2022/01/22 10:43:09;;;;;;;5.32;0.50;;;;;;;5.86;54.66;103109.78;5020470;28;20494;-73
2022/01/22 10:45:39;;;;;;;4.18;0.73;;;;;;;6.08;54.24;103110.97;5021222;28;20021;-73
2022/01/22 10:48:21;;;;;;;1.70;0.10;;;;;;;5.99;54.13;103112.53;5002694;28;20376;-73
2022/01/22 10:51:09;;;;;;;3.30;0.32;;;;;;;5.78;54.58;103113.97;5003810;28;20087;-73
2022/01/22 10:53:45;;;;;;;1.92;0.20;;;;;;;6.22;53.53;103105.09;5004353;28;20459;-73
2022/01/22 10:56:14;;;;;;;0.38;0.00;;;;;;;6.49;53.36;103113.28;5002685;28;20502;-73
2022/01/22 10:58:57;;;;;;;5.07;0.15;;;;;;;5.85;54.31;103114.94;5004498;28;20510;-73
2022/01/22 11:01:27;;;;;;;2.47;0.30;;;;;;;6.09;54.15;103112.69;5003479;28;20025;-74
2022/01/22 11:04:08;;;;;;;4.15;0.20;;;;;;;6.27;54.04;103124.22;5000558;28;20049;-73
2022/01/22 11:06:34;;;;;;;3.03;0.40;;;;;;;6.31;52.53;103120.84;4985669;28;20317;-73
2022/01/22 11:09:00;;;;;;;2.40;0.10;;;;;;;6.00;53.56;103114.31;5004679;28;20362;-73
2022/01/22 11:11:26;;;;;;;4.03;0.10;;;;;;;5.86;53.10;103108.91;4985589;28;20037;-73
2022/01/22 11:13:51;;;;;;;1.75;0.22;;;;;;;5.59;54.00;103105.03;5002574;28;20038;-72
2022/01/22 11:16:19;;;;;;;1.73;0.38;;;;;;;5.78;53.93;103107.91;5009001;28;20506;-73
2022/01/22 11:18:49;;;;;;;2.78;0.17;;;;;;;6.21;53.24;103112.00;4997490;28;20045;-73
2022/01/22 11:21:16;;;;;;;4.85;0.30;;;;;;;6.46;52.84;103113.25;5003137;28;20053;-73
2022/01/22 11:23:43;;;;;;;4.80;0.40;;;;;;;6.82;51.76;103121.47;4985923;28;20319;-72
2022/01/22 11:26:09;;;;;;;5.50;0.20;;;;;;;6.41;52.54;103117.50;5002289;28;20069;-73
2022/01/22 11:28:36;;;;;;;5.38;0.20;;;;;;;7.08;50.34;103129.56;5003446;28;20116;-73
2022/01/22 11:31:03;;;;;;;1.55;0.10;;;;;;;6.42;52.19;103124.47;5003321;28;20277;-73
2022/01/22 11:33:31;;;;;;;6.53;0.20;;;;;;;6.49;51.52;103125.41;5002934;28;20046;-72
2022/01/22 11:36:09;;;;;;;4.93;0.30;;;;;;;6.21;52.51;103129.31;5002981;28;20025;-73
2022/01/22 11:38:39;;;;;;;4.72;0.20;;;;;;;6.21;53.08;103130.19;5005004;28;20096;-73
2022/01/22 11:41:20;;;;;;;4.32;0.55;;;;;;;6.42;52.80;103134.84;5001922;28;20037;-74
2022/01/22 11:44:00;;;;;;;11.60;1.00;;;;;;;6.87;51.93;103130.22;4990749;28;20502;-73
2022/01/22 11:46:33;;;;;;;3.25;0.10;;;;;;;6.07;53.18;103129.97;5009139;28;20034;-73
2022/01/22 11:49:12;;;;;;;1.75;0.10;;;;;;;5.90;53.49;103130.56;5024784;28;22240;-73
2022/01/22 11:51:38;;;;;;;6.72;0.35;;;;;;;6.18;53.33;103131.88;5011407;28;20092;-73
2022/01/22 11:54:04;;;;;;;6.28;0.63;;;;;;;6.48;51.49;103134.94;5023816;28;20657;-73
2022/01/22 11:56:41;;;;;;;4.63;0.30;;;;;;;6.49;51.72;103141.00;5007041;28;20041;-73
2022/01/22 11:59:18;;;;;;;3.55;0.13;;;;;;;6.56;51.76;103139.34;5009441;28;20034;-73
2022/01/22 12:04:16;;;;;;;3.38;0.10;;;;;;;5.72;53.73;103149.31;5020650;28;20050;-73
2022/01/22 12:07:05;;;;;;;0.93;0.10;;;;;;;5.89;53.67;103147.88;5021147;28;20044;-73
2022/01/22 12:09:42;;;;;;;1.63;0.10;;;;;;;6.31;52.80;103143.31;5005228;28;20352;-73
2022/01/22 12:15:14;;;;;;;;;;;;;;;6.43;51.25;103146.97;5024636;28;20399;-74
2022/01/22 12:20:41;;;;;;;6.50;0.45;;;;;;;6.04;51.62;103158.50;5012024;28;20041;-74
2022/01/22 12:23:10;;;;;;;1.13;0.40;;;;;;;6.56;50.88;103158.41;5005675;28;20049;-72
2022/01/22 12:25:39;;;;;;;5.03;0.20;;;;;;;5.64;52.63;103165.63;5013818;28;20056;-73
2022/01/22 12:28:31;;;;;;;3.03;0.10;;;;;;;5.99;51.66;103147.16;5004065;28;20054;-73
2022/01/22 12:31:06;;;;;;;1.73;0.20;;;;;;;6.04;51.52;103148.13;5007322;28;20073;-72
2022/01/22 12:33:34;;;;;;;1.73;0.40;;;;;;;6.60;50.90;103154.13;5007321;28;20045;-72
2022/01/22 12:36:05;;;;;;;4.82;0.13;;;;;;;6.88;49.91;103145.81;5022628;28;20119;-73
2022/01/22 12:38:47;;;;;;;13.40;0.30;;;;;;;6.84;49.91;103153.56;5006492;28;20425;-73
2022/01/22 12:41:28;;;;;;;1.80;0.20;;;;;;;6.20;50.75;103143.16;5007834;28;20034;-72
2022/01/22 12:44:06;;;;;;;1.67;0.20;;;;;;;6.56;50.21;103144.56;5006193;28;20038;-72
2022/01/22 12:46:33;;;;;;;1.77;0.40;;;;;;;6.60;50.08;103149.81;5020196;28;20057;-72
2022/01/22 12:49:00;;;;;;;2.58;0.20;;;;;;;6.17;51.43;103153.47;5005368;28;22463;-73
2022/01/22 12:51:26;;;;;;;4.55;0.50;;;;;;;6.47;51.35;103151.34;5005380;28;20033;-73
2022/01/22 12:53:53;;;;;;;1.58;0.20;;;;;;;6.63;51.12;103148.97;5011992;28;20755;-73
2022/01/22 12:56:51;;;;;;;2.17;0.32;;;;;;;6.54;51.42;103146.25;4989134;28;20037;-73
2022/01/22 12:59:15;;;;;;;2.45;0.50;;;;;;;6.61;51.26;103140.28;5006130;28;20041;-72
2022/01/22 13:01:46;;;;;;;6.65;0.38;;;;;;;6.52;51.77;103137.56;5006354;28;20068;-73
2022/01/22 13:04:11;;;;;;;11.35;0.60;;;;;;;6.00;53.22;103148.06;5007027;28;20050;-72
2022/01/22 13:06:54;;;;;;;4.03;0.47;;;;;;;6.61;51.09;103143.75;5004512;28;20052;-74
2022/01/22 13:09:46;;;;;;;4.05;0.52;;;;;;;6.08;51.78;103142.13;5007201;28;20045;-73
2022/01/22 13:12:12;;;;;;;5.75;1.85;;;;;;;6.43;51.03;103146.97;5004814;28;20034;-74
2022/01/22 13:14:38;;;;;;;3.58;0.20;;;;;;;6.80;50.23;103139.66;4990211;28;20037;-73
2022/01/22 13:17:03;;;;;;;3.13;0.15;;;;;;;6.81;50.07;103140.53;5008781;28;20045;-73
2022/01/22 13:19:29;;;;;;;3.60;0.30;;;;;;;7.01;48.90;103151.16;5004908;28;20803;-71
2022/01/22 13:22:00;;;;;;;1.30;0.10;;;;;;;7.15;48.32;103148.72;5004701;28;20113;-73
2022/01/22 13:24:29;;;;;;;2.83;0.20;;;;;;;6.68;48.66;103155.09;5006855;28;20119;-70